createdAt,value
2022-08-19T00:00:15.604Z,8
2022-08-19T00:05:15.547Z,6
2022-08-19T00:10:15.658Z,7
2022-08-19T00:15:15.871Z,7
2022-08-19T00:20:15.602Z,9
2022-08-19T00:25:15.749Z,10
2022-08-19T00:30:15.595Z,7
2022-08-19T00:35:15.607Z,6
2022-08-19T00:40:15.637Z,6
2022-08-19T00:45:15.664Z,9
2022-08-19T00:50:15.628Z,7
2022-08-19T00:55:15.821Z,6
2022-08-19T01:00:15.644Z,6
2022-08-19T01:05:15.666Z,6
2022-08-19T01:10:15.718Z,5
2022-08-19T01:15:15.733Z,3
2022-08-19T01:20:15.897Z,4
2022-08-19T01:25:15.764Z,5
2022-08-19T01:30:15.783Z,7
2022-08-19T01:35:15.849Z,6
2022-08-19T01:40:15.799Z,2
2022-08-19T01:45:15.703Z,2
2022-08-19T01:50:15.822Z,2
2022-08-19T01:55:15.793Z,2
2022-08-19T02:00:15.809Z,0
2022-08-19T02:05:15.860Z,0
2022-08-19T02:10:16.971Z,0
2022-08-19T02:15:16.861Z,0
2022-08-19T02:20:16.901Z,0
2022-08-19T02:25:16.903Z,2
2022-08-19T02:30:16.918Z,1
2022-08-19T02:35:16.960Z,0
2022-08-19T02:40:16.915Z,2
2022-08-19T02:45:17.177Z,4
2022-08-19T02:50:16.955Z,5
2022-08-19T02:55:17.077Z,5
2022-08-19T03:00:16.977Z,4
2022-08-19T03:05:17.077Z,3
2022-08-19T03:10:16.992Z,3
2022-08-19T03:15:17.113Z,3
2022-08-19T03:20:16.953Z,4
2022-08-19T03:25:16.923Z,6
2022-08-19T03:30:16.974Z,6
2022-08-19T03:35:17.010Z,4
2022-08-19T03:40:17.097Z,4
2022-08-19T03:45:17.080Z,5
2022-08-19T03:50:17.099Z,10
2022-08-19T03:55:17.080Z,4
2022-08-19T04:00:16.027Z,6
2022-08-19T04:05:16.053Z,7
2022-08-19T04:10:16.197Z,9
2022-08-19T04:15:16.052Z,7
2022-08-19T04:20:16.104Z,8
2022-08-19T04:25:16.178Z,8
2022-08-19T04:30:16.269Z,8
2022-08-19T04:35:18.708Z,7
2022-08-19T04:40:16.172Z,7
2022-08-19T04:45:17.563Z,9
2022-08-19T04:50:16.195Z,8
2022-08-19T04:55:16.229Z,10
2022-08-19T05:00:16.337Z,9
2022-08-19T05:05:16.219Z,8
2022-08-19T05:10:16.243Z,10
2022-08-19T05:15:16.225Z,7
2022-08-19T05:20:16.235Z,7
2022-08-19T05:25:16.361Z,11
2022-08-19T05:30:16.351Z,11
2022-08-19T05:35:16.240Z,8
2022-08-19T05:40:16.338Z,7
2022-08-19T05:45:16.304Z,10
2022-08-19T05:50:16.449Z,9
2022-08-19T05:55:16.325Z,8
2022-08-19T06:00:16.332Z,12
2022-08-19T06:05:16.307Z,11
2022-08-19T06:10:17.507Z,10
2022-08-19T06:15:17.400Z,12
2022-08-19T06:20:18.770Z,11
2022-08-19T06:25:17.708Z,8
2022-08-19T06:30:15.328Z,10
2022-08-19T06:35:15.587Z,10
2022-08-19T06:40:15.794Z,11
2022-08-19T06:45:15.531Z,8
2022-08-19T06:50:15.445Z,12
2022-08-19T06:55:15.585Z,10
2022-08-19T07:00:15.472Z,11
2022-08-19T07:05:15.484Z,12
2022-08-19T07:10:15.460Z,10
2022-08-19T07:15:15.524Z,7
2022-08-19T07:20:15.537Z,10
2022-08-19T07:25:15.540Z,12
2022-08-19T07:30:15.596Z,7
2022-08-19T07:35:15.517Z,11
2022-08-19T07:40:15.643Z,9
2022-08-19T07:45:15.552Z,10
2022-08-19T07:50:15.567Z,9
2022-08-19T07:55:41.132Z,9
2022-08-19T08:00:15.617Z,8
2022-08-19T08:05:15.683Z,8
2022-08-19T08:10:20.824Z,11
2022-08-19T08:15:15.654Z,10
2022-08-19T08:20:15.638Z,12
2022-08-19T08:25:15.747Z,10
2022-08-19T08:30:15.697Z,11
2022-08-19T08:35:15.636Z,10
2022-08-19T08:40:15.779Z,8
2022-08-19T08:45:15.662Z,10
2022-08-19T08:50:15.677Z,10
2022-08-19T08:55:15.786Z,9
2022-08-19T09:00:16.135Z,9
2022-08-19T09:05:16.458Z,9
2022-08-19T09:10:15.768Z,9
2022-08-19T09:15:15.840Z,7
2022-08-19T09:20:15.831Z,8
2022-08-19T09:25:15.913Z,7
2022-08-19T09:30:16.106Z,10
2022-08-19T09:35:15.899Z,8
2022-08-19T09:40:15.927Z,11
2022-08-19T09:45:15.967Z,7
2022-08-19T09:50:16.494Z,8
2022-08-19T09:55:15.893Z,10
2022-08-19T10:00:15.955Z,10
2022-08-19T10:05:15.882Z,9
2022-08-19T10:10:15.989Z,9
2022-08-19T10:15:16.018Z,11
2022-08-19T10:20:15.879Z,11
2022-08-19T10:25:15.871Z,10
2022-08-19T10:30:16.009Z,5
2022-08-19T10:35:18.554Z,11
2022-08-19T10:40:16.126Z,9
2022-08-19T10:45:15.928Z,12
2022-08-19T10:50:16.071Z,11
2022-08-19T10:55:16.174Z,14
2022-08-19T11:00:16.012Z,9
2022-08-19T11:05:16.218Z,11
2022-08-19T11:10:20.884Z,11
2022-08-19T11:15:15.952Z,11
2022-08-19T11:20:16.216Z,13
2022-08-19T11:25:16.160Z,10
2022-08-19T11:30:15.992Z,12
2022-08-19T11:35:16.036Z,11
2022-08-19T11:40:16.169Z,12
2022-08-19T11:45:16.131Z,14
2022-08-19T11:50:16.152Z,10
2022-08-19T11:55:16.122Z,12
2022-08-19T12:00:16.089Z,15
2022-08-19T12:05:16.102Z,12
2022-08-19T12:10:16.144Z,13
2022-08-19T12:15:16.144Z,12
2022-08-19T12:20:16.231Z,13
2022-08-19T12:25:16.253Z,11
2022-08-19T12:30:16.153Z,12
2022-08-19T12:35:16.146Z,13
2022-08-19T12:40:16.326Z,15
2022-08-19T12:45:16.180Z,16
2022-08-19T12:50:16.332Z,14
2022-08-19T12:55:16.220Z,12
2022-08-19T13:00:16.277Z,10
2022-08-19T13:05:16.376Z,13
2022-08-19T13:10:16.323Z,13
2022-08-19T13:15:19.357Z,11
2022-08-19T13:20:16.254Z,13
2022-08-19T13:25:16.311Z,11
2022-08-19T13:30:16.505Z,13
2022-08-19T13:35:17.025Z,15
2022-08-19T13:40:16.387Z,11
2022-08-19T13:45:16.359Z,12
2022-08-19T13:50:16.374Z,14
2022-08-19T13:55:16.416Z,15
2022-08-19T14:00:16.384Z,14
2022-08-19T14:05:16.375Z,15
2022-08-19T14:10:16.367Z,15
2022-08-19T14:15:16.406Z,17
2022-08-19T14:20:17.747Z,15
2022-08-19T14:25:16.498Z,18
2022-08-19T14:30:16.406Z,15
2022-08-19T14:35:16.462Z,13
2022-08-19T14:40:16.640Z,13
2022-08-19T14:45:16.456Z,12
2022-08-19T14:50:18.023Z,14
2022-08-19T14:55:16.492Z,12
2022-08-19T15:00:16.628Z,12
2022-08-19T15:05:16.494Z,10
2022-08-19T15:10:16.547Z,12
2022-08-19T15:15:16.595Z,8
2022-08-19T15:20:16.688Z,9
2022-08-19T15:25:16.679Z,10
2022-08-19T15:30:16.570Z,11
2022-08-19T15:35:16.789Z,9
2022-08-19T15:40:16.729Z,11
2022-08-19T15:45:16.811Z,9
2022-08-19T15:50:16.606Z,10
2022-08-19T15:55:32.453Z,11
2022-08-19T16:00:16.747Z,10
2022-08-19T16:05:16.661Z,8
2022-08-19T16:10:27.167Z,13
2022-08-19T16:15:16.768Z,11
2022-08-19T16:20:16.733Z,11
2022-08-19T16:25:16.664Z,11
2022-08-19T16:30:16.733Z,11
2022-08-19T16:35:16.681Z,10
2022-08-19T16:40:16.950Z,10
2022-08-19T16:45:16.800Z,13
2022-08-19T16:50:22.103Z,10
2022-08-19T16:55:16.806Z,10
2022-08-19T17:00:16.881Z,11
2022-08-19T17:05:16.728Z,11
2022-08-19T17:10:16.777Z,10
2022-08-19T17:15:16.802Z,9
2022-08-19T17:20:17.223Z,9
2022-08-19T17:25:17.094Z,11
2022-08-19T17:30:16.987Z,10
2022-08-19T17:35:20.065Z,10
2022-08-19T17:40:21.274Z,9
2022-08-19T17:45:16.860Z,12
2022-08-19T17:50:16.954Z,12
2022-08-19T17:55:16.877Z,10
2022-08-19T18:00:16.868Z,11
2022-08-19T18:05:16.871Z,11
2022-08-19T18:10:16.860Z,11
2022-08-19T18:15:17.030Z,11
2022-08-19T18:20:16.902Z,8
2022-08-19T18:25:16.913Z,5
2022-08-19T18:30:16.962Z,8
2022-08-19T18:35:17.027Z,7
2022-08-19T18:40:17.153Z,6
2022-08-19T18:45:17.005Z,3
2022-08-19T18:50:17.008Z,7
2022-08-19T18:55:16.998Z,5
2022-08-19T19:00:17.027Z,7
2022-08-19T19:05:17.165Z,8
2022-08-19T19:10:17.076Z,10
2022-08-19T19:15:17.194Z,9
2022-08-19T19:20:17.028Z,5
2022-08-19T19:25:17.118Z,10
2022-08-19T19:30:17.190Z,10
2022-08-19T19:35:17.136Z,8
2022-08-19T19:40:17.156Z,11
2022-08-19T19:45:17.091Z,9
2022-08-19T19:50:17.108Z,9
2022-08-19T19:55:17.358Z,13
2022-08-19T20:00:17.237Z,13
2022-08-19T20:05:17.114Z,11
2022-08-19T20:10:17.127Z,12
2022-08-19T20:15:17.199Z,12
2022-08-19T20:20:17.138Z,14
2022-08-19T20:25:17.266Z,13
2022-08-19T20:30:19.129Z,12
2022-08-19T20:35:17.158Z,11
2022-08-19T20:40:20.543Z,10
2022-08-19T20:45:26.737Z,12
2022-08-19T20:50:17.275Z,15
2022-08-19T20:55:17.390Z,10
2022-08-19T21:00:17.436Z,15
2022-08-19T21:05:17.418Z,13
2022-08-19T21:10:17.393Z,13
2022-08-19T21:15:17.254Z,12
2022-08-19T21:20:17.334Z,11
2022-08-19T21:25:17.508Z,9
2022-08-19T21:30:17.332Z,11
2022-08-19T21:35:17.349Z,10
2022-08-19T21:40:17.634Z,12
2022-08-19T21:45:17.434Z,11
2022-08-19T21:50:15.387Z,14
2022-08-19T21:55:15.407Z,15
2022-08-19T22:00:15.545Z,14
2022-08-19T22:05:15.404Z,14
2022-08-19T22:10:15.413Z,12
2022-08-19T22:15:15.430Z,12
2022-08-19T22:20:15.466Z,11
2022-08-19T22:25:25.740Z,11
2022-08-19T22:30:15.606Z,11
2022-08-19T22:35:15.565Z,10
2022-08-19T22:40:15.506Z,9
2022-08-19T22:45:15.642Z,8
2022-08-19T22:50:15.523Z,7
2022-08-19T22:55:15.606Z,5
2022-08-19T23:00:15.609Z,6
2022-08-19T23:05:15.557Z,6
2022-08-19T23:10:15.660Z,6
2022-08-19T23:15:15.726Z,7
2022-08-19T23:20:15.713Z,7
2022-08-19T23:25:15.746Z,7
2022-08-19T23:30:15.567Z,4
2022-08-19T23:35:15.576Z,4
2022-08-19T23:40:15.829Z,6
2022-08-19T23:45:15.654Z,6
2022-08-19T23:50:15.695Z,4
2022-08-19T23:55:15.731Z,5
